createdAt,value
2018-11-02T00:01:34.211Z,15.60
2018-11-02T00:04:02.775Z,15.60
2018-11-02T00:06:32.564Z,15.60
2018-11-02T00:09:01.076Z,15.60
2018-11-02T00:11:29.633Z,15.60
2018-11-02T00:13:58.052Z,15.60
2018-11-02T00:16:26.418Z,15.60
2018-11-02T00:18:55.105Z,15.60
2018-11-02T00:21:23.694Z,15.60
2018-11-02T00:23:52.153Z,15.60
2018-11-02T00:26:20.864Z,15.60
2018-11-02T00:28:49.235Z,15.60
2018-11-02T00:31:17.691Z,15.60
2018-11-02T00:33:46.926Z,15.60
2018-11-02T00:36:15.772Z,15.60
2018-11-02T00:38:44.385Z,15.70
2018-11-02T00:41:13.024Z,15.60
2018-11-02T00:43:41.574Z,15.60
2018-11-02T00:46:10.139Z,15.60
2018-11-02T00:48:38.602Z,15.60
2018-11-02T00:51:07.574Z,15.60
2018-11-02T00:53:36.058Z,15.60
2018-11-02T00:56:04.737Z,15.60
2018-11-02T00:58:33.173Z,15.60
2018-11-02T01:01:01.921Z,15.60
2018-11-02T01:03:30.966Z,15.60
2018-11-02T01:05:59.578Z,15.60
2018-11-02T01:08:28.244Z,15.60
2018-11-02T01:10:57.360Z,15.60
2018-11-02T01:13:25.882Z,15.60
2018-11-02T01:15:54.609Z,15.60
2018-11-02T01:18:23.006Z,15.60
2018-11-02T01:20:51.774Z,15.60
2018-11-02T01:23:20.653Z,15.60
2018-11-02T01:25:49.272Z,15.60
2018-11-02T01:28:17.805Z,15.60
2018-11-02T01:30:46.273Z,15.60
2018-11-02T01:33:14.914Z,15.60
2018-11-02T01:35:43.584Z,15.60
2018-11-02T01:38:12.475Z,15.60
2018-11-02T01:40:40.943Z,15.60
2018-11-02T01:43:09.734Z,15.60
2018-11-02T01:45:38.830Z,15.60
2018-11-02T01:48:07.188Z,15.50
2018-11-02T01:50:36.605Z,15.50
2018-11-02T01:53:05.199Z,15.50
2018-11-02T01:55:33.761Z,15.50
2018-11-02T01:58:02.293Z,15.50
2018-11-02T02:00:30.975Z,15.60
2018-11-02T02:02:59.547Z,15.50
2018-11-02T02:05:29.008Z,15.60
2018-11-02T02:07:57.670Z,15.60
2018-11-02T02:10:26.207Z,15.60
2018-11-02T02:12:54.826Z,15.60
2018-11-02T02:15:23.550Z,15.60
2018-11-02T02:17:52.119Z,15.60
2018-11-02T02:20:22.039Z,15.60
2018-11-02T02:22:50.509Z,15.60
2018-11-02T02:25:20.796Z,15.60
2018-11-02T02:27:49.707Z,15.60
2018-11-02T02:30:19.876Z,15.60
2018-11-02T02:32:48.566Z,15.60
2018-11-02T02:35:19.076Z,15.70
2018-11-02T02:37:47.711Z,15.60
2018-11-02T02:40:17.857Z,15.60
2018-11-02T02:42:46.331Z,15.60
2018-11-02T02:45:14.844Z,15.60
2018-11-02T02:47:43.471Z,15.60
2018-11-02T02:50:13.823Z,15.60
2018-11-02T02:52:43.536Z,15.60
2018-11-02T02:55:12.394Z,15.60
2018-11-02T02:57:41.154Z,15.70
2018-11-02T03:00:13.187Z,15.60
2018-11-02T03:02:42.036Z,15.60
2018-11-02T03:05:11.243Z,15.60
2018-11-02T03:07:40.226Z,15.60
2018-11-02T03:10:09.095Z,15.70
2018-11-02T03:12:37.822Z,15.70
2018-11-02T03:15:07.145Z,15.70
2018-11-02T03:17:36.155Z,15.70
2018-11-02T03:20:06.746Z,15.70
2018-11-02T03:22:35.449Z,15.70
2018-11-02T03:25:04.143Z,15.70
2018-11-02T03:27:33.029Z,15.70
2018-11-02T03:30:01.532Z,15.70
2018-11-02T03:32:31.471Z,15.70
2018-11-02T03:34:59.985Z,15.70
2018-11-02T03:37:29.194Z,15.70
2018-11-02T03:39:57.875Z,15.70
2018-11-02T03:42:26.285Z,15.60
2018-11-02T03:44:54.764Z,15.70
2018-11-02T03:47:23.337Z,15.70
2018-11-02T03:49:52.215Z,15.70
2018-11-02T03:52:20.838Z,15.70
2018-11-02T03:54:49.331Z,15.70
2018-11-02T03:57:17.838Z,15.60
2018-11-02T03:59:46.806Z,15.60
2018-11-02T04:02:15.378Z,15.60
2018-11-02T04:04:43.967Z,15.60
2018-11-02T04:07:12.653Z,15.50
2018-11-02T04:09:41.181Z,15.60
2018-11-02T04:12:09.541Z,15.50
2018-11-02T04:14:38.121Z,15.50
2018-11-02T04:17:06.867Z,15.50
2018-11-02T04:19:35.419Z,15.50
2018-11-02T04:22:03.971Z,15.50
2018-11-02T04:24:32.644Z,15.50
2018-11-02T04:27:01.397Z,15.50
2018-11-02T04:29:29.803Z,15.50
2018-11-02T04:31:58.271Z,15.50
2018-11-02T04:34:27.231Z,15.50
2018-11-02T04:36:55.779Z,15.50
2018-11-02T04:39:24.247Z,15.50
2018-11-02T04:41:53.402Z,15.50
2018-11-02T04:44:21.986Z,15.50
2018-11-02T04:46:50.436Z,15.40
2018-11-02T04:49:18.926Z,15.50
2018-11-02T04:51:47.511Z,15.50
2018-11-02T04:54:16.059Z,15.50
2018-11-02T04:56:44.757Z,15.50
2018-11-02T04:59:13.402Z,15.50
2018-11-02T05:01:42.250Z,15.50
2018-11-02T05:04:10.615Z,15.40
2018-11-02T05:06:38.997Z,15.50
2018-11-02T05:09:08.398Z,15.40
2018-11-02T05:11:37.221Z,15.40
2018-11-02T05:14:11.107Z,15.40
2018-11-02T05:16:39.514Z,15.50
2018-11-02T05:19:07.915Z,15.50
2018-11-02T05:21:36.372Z,15.40
2018-11-02T05:24:05.040Z,15.40
2018-11-02T05:26:33.562Z,15.40
2018-11-02T05:29:01.988Z,15.40
2018-11-02T05:31:30.490Z,15.40
2018-11-02T05:33:58.987Z,15.40
2018-11-02T05:36:27.458Z,15.40
2018-11-02T05:38:55.861Z,15.40
2018-11-02T05:41:24.578Z,15.40
2018-11-02T05:43:53.122Z,15.50
2018-11-02T05:46:21.568Z,15.40
2018-11-02T05:48:50.048Z,15.40
2018-11-02T05:51:18.517Z,15.40
2018-11-02T05:53:47.017Z,15.40
2018-11-02T05:56:15.630Z,15.40
2018-11-02T05:58:44.751Z,15.40
2018-11-02T06:01:13.175Z,15.40
2018-11-02T06:03:41.887Z,15.40
2018-11-02T06:06:10.394Z,15.40
2018-11-02T06:08:38.886Z,15.40
2018-11-02T06:11:10.731Z,15.30
2018-11-02T06:13:39.129Z,15.40
2018-11-02T06:16:07.815Z,15.40
2018-11-02T06:18:36.278Z,15.40
2018-11-02T06:21:04.970Z,15.40
2018-11-02T06:23:33.351Z,15.30
2018-11-02T06:26:01.773Z,15.40
2018-11-02T06:28:30.237Z,15.30
2018-11-02T06:30:58.801Z,15.30
2018-11-02T06:33:27.333Z,15.30
2018-11-02T06:35:55.882Z,15.30
2018-11-02T06:38:24.693Z,15.30
2018-11-02T06:40:53.229Z,15.40
2018-11-02T06:43:22.069Z,15.40
2018-11-02T06:45:50.965Z,15.40
2018-11-02T06:48:19.474Z,15.40
2018-11-02T06:50:47.937Z,15.40
2018-11-02T06:53:16.697Z,15.40
2018-11-02T06:55:45.177Z,15.40
2018-11-02T06:58:14.067Z,15.40
2018-11-02T07:00:42.907Z,15.40
2018-11-02T07:03:11.524Z,15.40
2018-11-02T07:05:39.939Z,15.40
2018-11-02T07:08:08.558Z,15.40
2018-11-02T07:10:36.817Z,15.40
2018-11-02T07:13:05.317Z,15.40
2018-11-02T07:15:34.199Z,15.40
2018-11-02T07:18:02.696Z,15.40
2018-11-02T07:20:31.241Z,15.40
2018-11-02T07:22:59.691Z,15.40
2018-11-02T07:25:28.214Z,15.40
2018-11-02T07:27:56.727Z,15.50
2018-11-02T07:30:25.243Z,15.50
2018-11-02T07:32:53.519Z,15.50
2018-11-02T07:35:21.936Z,15.50
2018-11-02T07:37:50.529Z,15.50
2018-11-02T07:40:20.593Z,15.50
2018-11-02T07:42:49.031Z,15.50
2018-11-02T07:45:19.219Z,15.60
2018-11-02T07:47:47.726Z,15.60
2018-11-02T07:50:16.305Z,15.60
2018-11-02T07:52:44.775Z,15.60
2018-11-02T07:55:14.406Z,15.60
2018-11-02T07:57:42.891Z,15.60
2018-11-02T08:00:13.384Z,15.60
2018-11-02T08:02:43.470Z,15.60
2018-11-02T08:05:12.848Z,15.60
2018-11-02T08:07:41.192Z,15.70
2018-11-02T08:10:09.971Z,15.70
2018-11-02T08:12:38.519Z,15.70
2018-11-02T08:15:11.638Z,15.70
2018-11-02T08:17:41.183Z,15.70
2018-11-02T08:20:11.281Z,15.70
2018-11-02T08:22:39.648Z,15.80
2018-11-02T08:25:09.379Z,15.80
2018-11-02T08:27:37.767Z,15.80
2018-11-02T08:30:07.806Z,15.80
2018-11-02T08:32:36.247Z,15.90
2018-11-02T08:35:05.682Z,15.90
2018-11-02T08:37:34.007Z,15.90
2018-11-02T08:40:02.346Z,15.90
2018-11-02T08:42:30.886Z,15.90
2018-11-02T08:44:59.759Z,16.00
2018-11-02T08:47:28.158Z,16.00
2018-11-02T08:49:56.546Z,16.00
2018-11-02T08:52:25.062Z,16.00
2018-11-02T08:54:53.412Z,16.00
2018-11-02T08:57:21.795Z,16.10
2018-11-02T08:59:50.218Z,16.10
2018-11-02T09:02:18.878Z,16.10
2018-11-02T09:04:47.799Z,16.20
2018-11-02T09:07:16.695Z,16.20
2018-11-02T09:09:45.157Z,16.30
2018-11-02T09:12:13.777Z,16.30
2018-11-02T09:15:04.776Z,16.40
2018-11-02T09:17:33.246Z,16.40
2018-11-02T09:20:02.135Z,16.50
2018-11-02T09:22:30.607Z,16.50
2018-11-02T09:24:59.563Z,16.50
2018-11-02T09:27:28.064Z,16.50
2018-11-02T09:29:56.477Z,16.60
2018-11-02T09:32:25.268Z,16.60
2018-11-02T09:34:53.729Z,16.70
2018-11-02T09:37:22.217Z,16.70
2018-11-02T09:39:50.555Z,16.70
2018-11-02T09:42:19.037Z,16.70
2018-11-02T09:44:47.472Z,16.70
2018-11-02T09:47:15.992Z,16.80
2018-11-02T09:49:44.411Z,16.80
2018-11-02T09:52:13.055Z,16.80
2018-11-02T09:54:41.684Z,16.80
2018-11-02T09:57:10.390Z,16.80
2018-11-02T09:59:39.337Z,16.80
2018-11-02T10:02:08.056Z,16.80
2018-11-02T10:04:36.857Z,16.80
2018-11-02T10:07:05.696Z,16.80
2018-11-02T10:09:35.056Z,16.80
2018-11-02T10:12:04.008Z,16.80
2018-11-02T10:15:10.405Z,16.80
2018-11-02T10:17:39.071Z,16.80
2018-11-02T10:20:08.456Z,16.80
2018-11-02T10:22:37.026Z,16.80
2018-11-02T10:25:05.802Z,16.90
2018-11-02T10:27:34.835Z,16.90
2018-11-02T10:30:03.677Z,16.90
2018-11-02T10:32:32.349Z,17.00
2018-11-02T10:35:01.257Z,17.10
2018-11-02T10:37:30.131Z,17.20
2018-11-02T10:39:58.752Z,17.20
2018-11-02T10:42:27.637Z,17.30
2018-11-02T10:44:56.506Z,17.40
2018-11-02T10:47:25.093Z,17.40
2018-11-02T10:49:53.885Z,17.40
2018-11-02T10:52:22.336Z,17.40
2018-11-02T10:54:50.866Z,17.40
2018-11-02T10:57:19.311Z,17.50
2018-11-02T10:59:47.751Z,17.50
2018-11-02T11:02:21.653Z,17.50
2018-11-02T11:04:50.536Z,17.60
2018-11-02T11:07:19.327Z,17.60
2018-11-02T11:09:47.828Z,17.60
2018-11-02T11:12:16.400Z,17.60
2018-11-02T11:15:06.621Z,17.70
2018-11-02T11:17:35.267Z,17.70
2018-11-02T11:20:04.065Z,17.70
2018-11-02T11:22:32.998Z,17.80
2018-11-02T11:25:01.603Z,17.80
2018-11-02T11:27:30.219Z,17.80
2018-11-02T11:29:58.748Z,17.80
2018-11-02T11:32:27.364Z,17.80
2018-11-02T11:34:56.090Z,17.80
2018-11-02T11:37:24.860Z,17.80
2018-11-02T11:39:53.232Z,17.80
2018-11-02T11:42:21.756Z,17.70
2018-11-02T11:44:50.589Z,17.80
2018-11-02T11:47:19.072Z,17.70
2018-11-02T11:49:47.630Z,17.70
2018-11-02T11:52:16.175Z,17.70
2018-11-02T11:54:44.932Z,17.70
2018-11-02T11:57:13.549Z,17.70
2018-11-02T11:59:42.015Z,17.70
2018-11-02T12:02:10.790Z,17.70
2018-11-02T12:04:39.866Z,17.70
2018-11-02T12:07:08.472Z,17.60
2018-11-02T12:09:37.074Z,17.60
2018-11-02T12:12:05.816Z,17.60
2018-11-02T12:15:08.297Z,17.60
2018-11-02T12:17:36.886Z,17.60
2018-11-02T12:20:08.059Z,17.60
2018-11-02T12:22:37.075Z,17.60
2018-11-02T12:25:06.570Z,17.60
2018-11-02T12:27:35.458Z,17.60
2018-11-02T12:30:04.276Z,17.60
2018-11-02T12:32:32.746Z,17.50
2018-11-02T12:35:01.446Z,17.40
2018-11-02T12:37:30.298Z,17.40
2018-11-02T12:39:58.979Z,17.40
2018-11-02T12:42:27.496Z,17.40
2018-11-02T12:44:56.202Z,17.40
2018-11-02T12:47:25.248Z,17.40
2018-11-02T12:49:54.291Z,17.40
2018-11-02T12:52:23.278Z,17.30
2018-11-02T12:54:52.967Z,17.30
2018-11-02T12:57:22.028Z,17.30
2018-11-02T12:59:51.188Z,17.30
2018-11-02T13:02:21.121Z,17.30
2018-11-02T13:04:50.196Z,17.30
2018-11-02T13:07:19.346Z,17.30
2018-11-02T13:09:48.671Z,17.20
2018-11-02T13:12:17.718Z,17.20
2018-11-02T13:15:11.756Z,17.30
2018-11-02T13:17:41.627Z,17.20
2018-11-02T13:20:11.232Z,17.20
2018-11-02T13:22:40.701Z,17.20
2018-11-02T13:25:13.270Z,17.20
2018-11-02T13:27:42.986Z,17.10
2018-11-02T13:30:12.786Z,17.10
2018-11-02T13:32:41.866Z,17.10
2018-11-02T13:35:13.415Z,17.10
2018-11-02T13:37:43.261Z,17.10
2018-11-02T13:40:13.703Z,17.10
2018-11-02T13:42:43.023Z,17.10
2018-11-02T13:45:13.800Z,17.00
2018-11-02T13:47:43.405Z,17.00
2018-11-02T13:50:13.137Z,17.00
2018-11-02T13:52:42.894Z,17.00
2018-11-02T13:55:12.918Z,17.00
2018-11-02T13:57:42.887Z,17.00
2018-11-02T14:00:14.466Z,17.00
2018-11-02T14:02:43.727Z,17.00
2018-11-02T14:05:14.343Z,17.00
2018-11-02T14:07:43.602Z,17.00
2018-11-02T14:10:13.510Z,17.00
2018-11-02T14:12:42.780Z,17.00
2018-11-02T14:18:29.016Z,17.00
2018-11-02T14:20:58.136Z,17.00
2018-11-02T14:23:27.812Z,17.00
2018-11-02T14:25:57.019Z,17.00
2018-11-02T14:28:26.258Z,17.00
2018-11-02T14:30:55.483Z,17.00
2018-11-02T14:33:25.031Z,17.00
2018-11-02T14:35:54.699Z,17.00
2018-11-02T14:38:24.999Z,17.00
2018-11-02T14:40:54.303Z,17.00
2018-11-02T14:43:23.999Z,17.00
2018-11-02T14:45:54.077Z,17.00
2018-11-02T14:48:23.381Z,17.00
2018-11-02T14:50:53.177Z,17.00
2018-11-02T14:53:22.426Z,17.00
2018-11-02T14:55:51.636Z,17.00
2018-11-02T14:58:20.890Z,17.00
2018-11-02T15:00:50.811Z,17.00
2018-11-02T15:03:20.170Z,17.00
2018-11-02T15:05:49.418Z,17.00
2018-11-02T15:08:18.654Z,17.00
2018-11-02T15:10:48.684Z,17.10
2018-11-02T15:13:17.946Z,17.00
2018-11-02T15:16:10.880Z,17.00
2018-11-02T15:18:40.113Z,17.00
2018-11-02T15:21:09.207Z,17.00
2018-11-02T15:23:38.367Z,17.00
2018-11-02T15:26:07.749Z,17.00
2018-11-02T15:28:37.042Z,17.00
2018-11-02T15:31:06.616Z,17.00
2018-11-02T15:33:36.773Z,17.00
2018-11-02T15:36:07.040Z,17.00
2018-11-02T15:38:36.442Z,17.10
2018-11-02T15:41:06.287Z,17.00
2018-11-02T15:43:35.505Z,17.00
2018-11-02T15:46:04.690Z,17.00
2018-11-02T15:48:33.944Z,17.00
2018-11-02T15:51:03.206Z,16.90
2018-11-02T15:53:32.505Z,17.00
2018-11-02T15:56:01.800Z,16.90
2018-11-02T15:58:31.151Z,16.90
2018-11-02T16:01:00.485Z,16.90
2018-11-02T16:03:30.387Z,17.00
2018-11-02T16:05:59.556Z,17.00
2018-11-02T16:08:28.683Z,16.90
2018-11-02T16:11:07.691Z,16.90
2018-11-02T16:13:36.811Z,17.00
2018-11-02T16:16:22.397Z,17.00
2018-11-02T16:18:51.658Z,17.00
2018-11-02T16:21:20.943Z,17.00
2018-11-02T16:23:50.307Z,16.90
2018-11-02T16:26:20.371Z,16.90
2018-11-02T16:28:49.899Z,16.90
2018-11-02T16:31:20.546Z,17.00
2018-11-02T16:33:49.712Z,16.90
2018-11-02T16:36:18.879Z,16.90
2018-11-02T16:38:48.036Z,16.90
2018-11-02T16:41:17.194Z,16.90
2018-11-02T16:43:46.553Z,16.90
2018-11-02T16:46:15.655Z,16.90
2018-11-02T16:48:44.787Z,16.90
2018-11-02T16:51:14.009Z,16.90
2018-11-02T16:53:43.307Z,16.90
2018-11-02T16:56:12.591Z,16.90
2018-11-02T16:58:41.874Z,16.90
2018-11-02T17:01:11.227Z,16.90
2018-11-02T17:03:40.405Z,16.90
2018-11-02T17:06:09.691Z,16.90
2018-11-02T17:08:39.802Z,16.90
2018-11-02T17:11:10.654Z,16.90
2018-11-02T17:13:39.857Z,16.90
2018-11-02T17:16:33.279Z,16.90
2018-11-02T17:19:03.371Z,16.90
2018-11-02T17:21:32.707Z,16.90
2018-11-02T17:24:02.135Z,16.90
2018-11-02T17:26:32.391Z,16.90
2018-11-02T17:29:02.090Z,16.90
2018-11-02T17:31:31.355Z,16.90
2018-11-02T17:34:00.670Z,16.90
2018-11-02T17:36:30.955Z,16.90
2018-11-02T17:39:01.154Z,16.90
2018-11-02T17:41:30.475Z,16.90
2018-11-02T17:43:59.780Z,16.90
2018-11-02T17:46:28.978Z,16.90
2018-11-02T17:48:59.038Z,16.90
2018-11-02T17:51:28.427Z,16.90
2018-11-02T17:53:58.721Z,16.90
2018-11-02T17:56:28.026Z,16.90
2018-11-02T17:58:57.278Z,16.90
2018-11-02T18:01:26.617Z,16.90
2018-11-02T18:03:55.879Z,16.90
2018-11-02T18:06:25.955Z,16.90
2018-11-02T18:08:55.755Z,16.90
2018-11-02T18:11:25.724Z,16.90
2018-11-02T18:13:58.689Z,16.90
2018-11-02T18:16:35.232Z,16.90
2018-11-02T18:19:05.526Z,16.90
2018-11-02T18:21:34.769Z,16.90
2018-11-02T18:24:04.783Z,16.90
2018-11-02T18:26:34.079Z,16.90
2018-11-02T18:29:03.445Z,16.90
2018-11-02T18:31:33.421Z,16.90
2018-11-02T18:34:02.713Z,16.90
2018-11-02T18:36:33.374Z,16.90
2018-11-02T18:39:04.171Z,16.90
2018-11-02T18:41:33.259Z,16.90
2018-11-02T18:44:04.072Z,16.90
2018-11-02T18:46:34.315Z,16.90
2018-11-02T18:49:04.583Z,16.90
2018-11-02T18:51:36.435Z,16.90
2018-11-02T18:54:07.050Z,16.90
2018-11-02T18:56:36.414Z,16.90
2018-11-02T18:59:06.603Z,16.90
2018-11-02T19:01:35.953Z,16.90
2018-11-02T19:04:05.419Z,16.90
2018-11-02T19:06:35.186Z,16.90
2018-11-02T19:09:06.781Z,17.00
2018-11-02T19:11:38.138Z,16.90
2018-11-02T19:14:52.751Z,16.90
2018-11-02T19:17:22.145Z,16.90
2018-11-02T19:19:53.161Z,17.00
2018-11-02T19:22:22.529Z,17.00
2018-11-02T19:24:53.142Z,17.00
2018-11-02T19:27:23.518Z,16.90
2018-11-02T19:29:55.497Z,17.00
2018-11-02T19:32:26.515Z,17.00
2018-11-02T19:34:55.893Z,17.00
2018-11-02T19:37:26.540Z,17.00
2018-11-02T19:39:57.749Z,16.90
2018-11-02T19:42:27.235Z,16.90
2018-11-02T19:44:57.483Z,17.00
2018-11-02T19:47:32.875Z,17.00
2018-11-02T19:50:02.226Z,16.90
2018-11-02T19:52:31.530Z,16.90
2018-11-02T19:55:00.967Z,16.90
2018-11-02T19:57:33.195Z,16.90
2018-11-02T20:00:02.792Z,16.90
2018-11-02T20:02:32.186Z,16.90
2018-11-02T20:05:01.451Z,16.90
2018-11-02T20:07:30.695Z,16.90
2018-11-02T20:10:00.027Z,16.90
2018-11-02T20:12:30.326Z,16.90
2018-11-02T20:18:20.824Z,16.90
2018-11-02T20:20:51.014Z,16.90
2018-11-02T20:23:20.259Z,16.90
2018-11-02T20:25:50.545Z,16.90
2018-11-02T20:28:19.795Z,16.90
2018-11-02T20:30:50.069Z,16.90
2018-11-02T20:33:19.400Z,16.90
2018-11-02T20:35:49.668Z,16.90
2018-11-02T20:38:18.967Z,16.90
2018-11-02T20:40:48.865Z,16.90
2018-11-02T20:43:18.079Z,16.90
2018-11-02T20:45:48.203Z,16.90
2018-11-02T20:48:17.642Z,16.80
2018-11-02T20:50:47.559Z,16.90
2018-11-02T20:53:17.727Z,16.90
2018-11-02T20:55:47.588Z,16.90
2018-11-02T20:58:17.005Z,16.90
2018-11-02T21:00:46.311Z,16.90
2018-11-02T21:03:16.327Z,16.80
2018-11-02T21:05:47.212Z,16.80
2018-11-02T21:08:18.387Z,16.90
2018-11-02T21:10:47.664Z,16.80
2018-11-02T21:13:17.648Z,16.80
2018-11-02T21:16:35.072Z,16.80
2018-11-02T21:19:04.445Z,16.80
2018-11-02T21:21:35.468Z,16.80
2018-11-02T21:24:04.842Z,16.80
2018-11-02T21:29:54.930Z,16.80
2018-11-02T21:32:24.222Z,16.80
2018-11-02T21:34:54.086Z,16.70
2018-11-02T21:37:23.429Z,16.70
2018-11-02T21:39:55.034Z,16.70
2018-11-02T21:42:24.354Z,16.70
2018-11-02T21:44:53.575Z,16.70
2018-11-02T21:47:23.811Z,16.70
2018-11-02T21:49:53.173Z,16.70
2018-11-02T21:52:22.342Z,16.70
2018-11-02T21:54:51.691Z,16.70
2018-11-02T21:57:20.832Z,16.70
2018-11-02T21:59:50.070Z,16.70
2018-11-02T22:02:19.291Z,16.70
2018-11-02T22:04:49.015Z,16.70
2018-11-02T22:07:18.286Z,16.70
2018-11-02T22:09:47.726Z,16.70
2018-11-02T22:12:18.398Z,16.70
2018-11-02T22:18:02.384Z,16.70
2018-11-02T22:20:31.663Z,16.80
2018-11-02T22:23:00.939Z,16.80
2018-11-02T22:25:30.224Z,16.70
2018-11-02T22:28:00.431Z,16.80
2018-11-02T22:30:30.426Z,16.70
2018-11-02T22:33:00.362Z,16.80
2018-11-02T22:35:29.997Z,16.80
2018-11-02T22:37:59.691Z,16.80
2018-11-02T22:40:29.652Z,16.80
2018-11-02T22:42:58.982Z,16.80
2018-11-02T22:45:28.101Z,16.80
2018-11-02T22:48:02.527Z,16.80
2018-11-02T22:50:31.848Z,16.80
2018-11-02T22:53:01.055Z,16.80
2018-11-02T22:55:30.243Z,16.80
2018-11-02T22:57:59.458Z,16.80
2018-11-02T23:00:28.754Z,16.80
2018-11-02T23:02:58.015Z,16.80
2018-11-02T23:05:27.168Z,16.80
2018-11-02T23:07:56.499Z,16.80
2018-11-02T23:10:25.828Z,16.80
2018-11-02T23:12:54.985Z,16.80
2018-11-02T23:15:24.625Z,16.80
2018-11-02T23:17:53.815Z,16.80
2018-11-02T23:20:22.920Z,16.70
2018-11-02T23:22:52.163Z,16.70
2018-11-02T23:25:23.200Z,16.80
2018-11-02T23:27:52.212Z,16.70
2018-11-02T23:30:22.830Z,16.70
2018-11-02T23:32:51.987Z,16.70
2018-11-02T23:35:22.621Z,16.80
2018-11-02T23:37:51.588Z,16.70
2018-11-02T23:40:21.635Z,16.70
2018-11-02T23:42:50.389Z,16.70
2018-11-02T23:45:20.531Z,16.70
2018-11-02T23:47:54.523Z,16.70
2018-11-02T23:50:22.990Z,16.70
2018-11-02T23:52:51.367Z,16.70
2018-11-02T23:55:21.307Z,16.70
2018-11-02T23:57:49.746Z,16.70
